sensor_id;sensor_type;location;lat;lon;timestamp;pressure;altitude;pressure_sealevel;temperature;humidity
36972;BME280;40554;52.122;20.678;2023-01-30T00:00:32;100207.15;;;0.07;100.00
36972;BME280;40554;52.122;20.678;2023-01-30T00:02:48;100205.25;;;0.08;100.00
36972;BME280;40554;52.122;20.678;2023-01-30T00:05:05;100203.50;;;0.08;100.00
36972;BME280;40554;52.122;20.678;2023-01-30T00:07:21;100199.14;;;0.09;100.00
36972;BME280;40554;52.122;20.678;2023-01-30T00:09:37;100193.38;;;0.09;100.00
36972;BME280;40554;52.122;20.678;2023-01-30T00:11:53;100190.95;;;0.09;100.00
36972;BME280;40554;52.122;20.678;2023-01-30T00:14:10;100186.76;;;0.10;100.00
36972;BME280;40554;52.122;20.678;2023-01-30T00:16:26;100180.83;;;0.10;100.00
36972;BME280;40554;52.122;20.678;2023-01-30T00:18:43;100177.86;;;0.11;100.00
36972;BME280;40554;52.122;20.678;2023-01-30T00:21:02;100175.08;;;0.11;100.00
36972;BME280;40554;52.122;20.678;2023-01-30T00:23:18;100172.82;;;0.11;100.00
36972;BME280;40554;52.122;20.678;2023-01-30T00:25:35;100163.40;;;0.12;100.00
36972;BME280;40554;52.122;20.678;2023-01-30T00:27:51;100155.06;;;0.12;100.00
36972;BME280;40554;52.122;20.678;2023-01-30T00:30:08;100147.58;;;0.12;100.00
36972;BME280;40554;52.122;20.678;2023-01-30T00:32:25;100139.77;;;0.11;100.00
36972;BME280;40554;52.122;20.678;2023-01-30T00:34:42;100130.74;;;0.11;100.00
36972;BME280;40554;52.122;20.678;2023-01-30T00:36:59;100128.14;;;0.11;100.00
36972;BME280;40554;52.122;20.678;2023-01-30T00:39:23;100126.73;;;0.11;100.00
36972;BME280;40554;52.122;20.678;2023-01-30T00:41:40;100122.05;;;0.11;100.00
36972;BME280;40554;52.122;20.678;2023-01-30T00:44:14;100114.59;;;0.11;100.00
36972;BME280;40554;52.122;20.678;2023-01-30T00:46:50;100108.33;;;0.11;100.00
36972;BME280;40554;52.122;20.678;2023-01-30T00:49:21;100100.15;;;0.11;100.00
36972;BME280;40554;52.122;20.678;2023-01-30T00:51:38;100099.10;;;0.11;100.00
36972;BME280;40554;52.122;20.678;2023-01-30T00:53:54;100094.95;;;0.10;100.00
36972;BME280;40554;52.122;20.678;2023-01-30T00:56:10;100087.48;;;0.10;100.00
36972;BME280;40554;52.122;20.678;2023-01-30T00:58:26;100085.39;;;0.10;100.00
36972;BME280;40554;52.122;20.678;2023-01-30T01:00:42;100075.83;;;0.10;100.00
36972;BME280;40554;52.122;20.678;2023-01-30T01:02:59;100067.30;;;0.10;100.00
36972;BME280;40554;52.122;20.678;2023-01-30T01:05:15;100063.30;;;0.11;100.00
36972;BME280;40554;52.122;20.678;2023-01-30T01:07:32;100057.94;;;0.10;100.00
36972;BME280;40554;52.122;20.678;2023-01-30T01:09:48;100054.84;;;0.09;100.00
36972;BME280;40554;52.122;20.678;2023-01-30T01:12:05;100049.27;;;0.09;100.00
36972;BME280;40554;52.122;20.678;2023-01-30T01:14:21;100038.83;;;0.10;100.00
36972;BME280;40554;52.122;20.678;2023-01-30T01:16:37;100031.86;;;0.10;100.00
36972;BME280;40554;52.122;20.678;2023-01-30T01:18:54;100026.13;;;0.10;100.00
36972;BME280;40554;52.122;20.678;2023-01-30T01:21:10;100014.84;;;0.10;100.00
36972;BME280;40554;52.122;20.678;2023-01-30T01:23:26;100007.35;;;0.10;100.00
36972;BME280;40554;52.122;20.678;2023-01-30T01:25:42;100000.05;;;0.10;100.00
36972;BME280;40554;52.122;20.678;2023-01-30T01:27:59;99994.81;;;0.10;100.00
36972;BME280;40554;52.122;20.678;2023-01-30T01:30:15;99994.32;;;0.10;100.00
36972;BME280;40554;52.122;20.678;2023-01-30T01:32:32;99987.91;;;0.10;100.00
36972;BME280;40554;52.122;20.678;2023-01-30T01:34:49;99979.77;;;0.09;100.00
36972;BME280;40554;52.122;20.678;2023-01-30T01:37:05;99972.83;;;0.09;100.00
36972;BME280;40554;52.122;20.678;2023-01-30T01:39:22;99974.91;;;0.09;100.00
36972;BME280;40554;52.122;20.678;2023-01-30T01:41:38;99969.55;;;0.07;100.00
36972;BME280;40554;52.122;20.678;2023-01-30T01:44:06;99960.15;;;0.07;100.00
36972;BME280;40554;52.122;20.678;2023-01-30T01:46:26;99954.41;;;0.08;100.00
36972;BME280;40554;52.122;20.678;2023-01-30T01:48:48;99956.48;;;0.08;100.00
36972;BME280;40554;52.122;20.678;2023-01-30T01:51:14;99954.74;;;0.09;100.00
36972;BME280;40554;52.122;20.678;2023-01-30T01:53:35;99948.32;;;0.08;100.00
36972;BME280;40554;52.122;20.678;2023-01-30T01:55:55;99944.30;;;0.09;100.00
36972;BME280;40554;52.122;20.678;2023-01-30T01:58:17;99944.86;;;0.08;100.00
36972;BME280;40554;52.122;20.678;2023-01-30T02:00:35;99945.55;;;0.08;100.00
36972;BME280;40554;52.122;20.678;2023-01-30T02:03:13;99945.20;;;0.08;100.00
36972;BME280;40554;52.122;20.678;2023-01-30T02:05:33;99942.80;;;0.07;100.00
36972;BME280;40554;52.122;20.678;2023-01-30T02:08:11;99937.41;;;0.07;100.00
36972;BME280;40554;52.122;20.678;2023-01-30T02:13:07;99926.54;;;0.04;100.00
36972;BME280;40554;52.122;20.678;2023-01-30T02:15:24;99923.64;;;0.03;100.00
36972;BME280;40554;52.122;20.678;2023-01-30T02:17:40;99917.59;;;0.02;100.00
36972;BME280;40554;52.122;20.678;2023-01-30T02:35:30;99889.88;;;-0.07;100.00
36972;BME280;40554;52.122;20.678;2023-01-30T02:43:27;99867.95;;;-0.11;100.00
36972;BME280;40554;52.122;20.678;2023-01-30T02:50:11;99850.15;;;-0.14;100.00
36972;BME280;40554;52.122;20.678;2023-01-30T02:52:29;99845.64;;;-0.14;100.00
36972;BME280;40554;52.122;20.678;2023-01-30T02:54:45;99842.56;;;-0.15;100.00
36972;BME280;40554;52.122;20.678;2023-01-30T02:57:01;99842.75;;;-0.16;100.00
36972;BME280;40554;52.122;20.678;2023-01-30T02:59:37;99837.73;;;-0.17;100.00
36972;BME280;40554;52.122;20.678;2023-01-30T03:04:34;99830.74;;;-0.20;100.00
36972;BME280;40554;52.122;20.678;2023-01-30T03:07:16;99829.58;;;-0.22;100.00
36972;BME280;40554;52.122;20.678;2023-01-30T03:09:48;99823.55;;;-0.24;100.00
36972;BME280;40554;52.122;20.678;2023-01-30T03:14:51;99807.74;;;-0.29;100.00
36972;BME280;40554;52.122;20.678;2023-01-30T03:17:10;99802.10;;;-0.32;100.00
36972;BME280;40554;52.122;20.678;2023-01-30T03:19:28;99800.05;;;-0.33;100.00
36972;BME280;40554;52.122;20.678;2023-01-30T03:21:45;99787.83;;;-0.36;100.00
36972;BME280;40554;52.122;20.678;2023-01-30T03:24:02;99779.05;;;-0.39;100.00
36972;BME280;40554;52.122;20.678;2023-01-30T03:26:24;99771.29;;;-0.40;100.00
36972;BME280;40554;52.122;20.678;2023-01-30T03:28:43;99762.73;;;-0.44;100.00
36972;BME280;40554;52.122;20.678;2023-01-30T03:31:00;99757.44;;;-0.47;100.00
36972;BME280;40554;52.122;20.678;2023-01-30T03:33:16;99746.39;;;-0.49;100.00
36972;BME280;40554;52.122;20.678;2023-01-30T03:35:33;99742.27;;;-0.50;100.00
36972;BME280;40554;52.122;20.678;2023-01-30T03:37:49;99738.35;;;-0.52;100.00
36972;BME280;40554;52.122;20.678;2023-01-30T03:40:06;99727.98;;;-0.54;100.00
36972;BME280;40554;52.122;20.678;2023-01-30T03:42:23;99725.61;;;-0.56;100.00
36972;BME280;40554;52.122;20.678;2023-01-30T03:44:39;99715.09;;;-0.58;100.00
36972;BME280;40554;52.122;20.678;2023-01-30T03:46:55;99715.84;;;-0.59;100.00
36972;BME280;40554;52.122;20.678;2023-01-30T03:49:11;99717.83;;;-0.61;100.00
36972;BME280;40554;52.122;20.678;2023-01-30T03:51:28;99709.89;;;-0.63;100.00
36972;BME280;40554;52.122;20.678;2023-01-30T03:53:44;99711.48;;;-0.64;100.00
36972;BME280;40554;52.122;20.678;2023-01-30T03:56:00;99701.61;;;-0.65;100.00
36972;BME280;40554;52.122;20.678;2023-01-30T03:58:16;99695.73;;;-0.66;100.00
36972;BME280;40554;52.122;20.678;2023-01-30T04:00:33;99690.05;;;-0.67;100.00
36972;BME280;40554;52.122;20.678;2023-01-30T04:02:49;99685.38;;;-0.68;100.00
36972;BME280;40554;52.122;20.678;2023-01-30T04:05:05;99675.67;;;-0.68;100.00
36972;BME280;40554;52.122;20.678;2023-01-30T04:07:22;99669.27;;;-0.69;100.00
36972;BME280;40554;52.122;20.678;2023-01-30T04:09:38;99668.39;;;-0.69;100.00
36972;BME280;40554;52.122;20.678;2023-01-30T04:11:54;99670.83;;;-0.69;100.00
36972;BME280;40554;52.122;20.678;2023-01-30T04:14:11;99658.52;;;-0.69;100.00
36972;BME280;40554;52.122;20.678;2023-01-30T04:16:27;99652.63;;;-0.70;100.00
36972;BME280;40554;52.122;20.678;2023-01-30T04:18:43;99645.18;;;-0.70;100.00
36972;BME280;40554;52.122;20.678;2023-01-30T04:21:00;99639.96;;;-0.70;100.00
36972;BME280;40554;52.122;20.678;2023-01-30T04:23:16;99637.53;;;-0.70;100.00
36972;BME280;40554;52.122;20.678;2023-01-30T04:25:32;99625.73;;;-0.70;100.00
36972;BME280;40554;52.122;20.678;2023-01-30T04:27:48;99624.00;;;-0.70;100.00
36972;BME280;40554;52.122;20.678;2023-01-30T04:30:05;99615.16;;;-0.70;100.00
36972;BME280;40554;52.122;20.678;2023-01-30T04:32:22;99609.09;;;-0.71;100.00
36972;BME280;40554;52.122;20.678;2023-01-30T04:34:40;99607.02;;;-0.71;100.00
36972;BME280;40554;52.122;20.678;2023-01-30T04:36:58;99603.36;;;-0.71;100.00
36972;BME280;40554;52.122;20.678;2023-01-30T04:39:15;99598.16;;;-0.71;100.00
36972;BME280;40554;52.122;20.678;2023-01-30T04:41:31;99593.11;;;-0.71;100.00
36972;BME280;40554;52.122;20.678;2023-01-30T04:43:48;99587.22;;;-0.70;100.00
36972;BME280;40554;52.122;20.678;2023-01-30T04:46:04;99582.20;;;-0.71;100.00
36972;BME280;40554;52.122;20.678;2023-01-30T04:48:22;99574.70;;;-0.70;100.00
36972;BME280;40554;52.122;20.678;2023-01-30T04:50:41;99568.63;;;-0.70;100.00
36972;BME280;40554;52.122;20.678;2023-01-30T04:52:58;99569.32;;;-0.70;100.00
36972;BME280;40554;52.122;20.678;2023-01-30T04:55:14;99564.27;;;-0.70;100.00
36972;BME280;40554;52.122;20.678;2023-01-30T04:57:30;99561.13;;;-0.69;100.00
36972;BME280;40554;52.122;20.678;2023-01-30T04:59:46;99563.38;;;-0.69;100.00
36972;BME280;40554;52.122;20.678;2023-01-30T05:02:03;99573.27;;;-0.69;100.00
36972;BME280;40554;52.122;20.678;2023-01-30T05:04:19;99568.40;;;-0.69;100.00
36972;BME280;40554;52.122;20.678;2023-01-30T05:06:36;99559.71;;;-0.68;100.00
36972;BME280;40554;52.122;20.678;2023-01-30T05:08:54;99549.12;;;-0.68;100.00
36972;BME280;40554;52.122;20.678;2023-01-30T05:11:11;99549.27;;;-0.68;100.00
36972;BME280;40554;52.122;20.678;2023-01-30T05:13:27;99549.80;;;-0.68;100.00
36972;BME280;40554;52.122;20.678;2023-01-30T05:15:44;99545.64;;;-0.68;100.00
36972;BME280;40554;52.122;20.678;2023-01-30T05:18:00;99528.27;;;-0.68;100.00
36972;BME280;40554;52.122;20.678;2023-01-30T05:20:16;99510.58;;;-0.68;100.00
36972;BME280;40554;52.122;20.678;2023-01-30T05:22:33;99504.33;;;-0.68;100.00
36972;BME280;40554;52.122;20.678;2023-01-30T05:24:49;99504.67;;;-0.68;100.00
36972;BME280;40554;52.122;20.678;2023-01-30T05:27:05;99506.92;;;-0.68;100.00
36972;BME280;40554;52.122;20.678;2023-01-30T05:29:21;99492.69;;;-0.67;100.00
36972;BME280;40554;52.122;20.678;2023-01-30T05:31:38;99492.15;;;-0.67;100.00
36972;BME280;40554;52.122;20.678;2023-01-30T05:33:54;99479.65;;;-0.67;100.00
36972;BME280;40554;52.122;20.678;2023-01-30T05:36:14;99475.70;;;-0.69;100.00
36972;BME280;40554;52.122;20.678;2023-01-30T05:38:31;99484.25;;;-0.70;100.00
36972;BME280;40554;52.122;20.678;2023-01-30T05:43:15;99490.81;;;-0.69;100.00
36972;BME280;40554;52.122;20.678;2023-01-30T05:45:32;99480.79;;;-0.70;100.00
36972;BME280;40554;52.122;20.678;2023-01-30T05:47:51;99472.39;;;-0.69;100.00
36972;BME280;40554;52.122;20.678;2023-01-30T05:50:10;99473.67;;;-0.70;100.00
36972;BME280;40554;52.122;20.678;2023-01-30T05:52:26;99465.35;;;-0.70;100.00
36972;BME280;40554;52.122;20.678;2023-01-30T05:54:43;99458.89;;;-0.69;100.00
36972;BME280;40554;52.122;20.678;2023-01-30T05:56:59;99463.76;;;-0.69;100.00
36972;BME280;40554;52.122;20.678;2023-01-30T05:59:15;99461.53;;;-0.70;100.00
36972;BME280;40554;52.122;20.678;2023-01-30T06:01:33;99448.34;;;-0.70;100.00
36972;BME280;40554;52.122;20.678;2023-01-30T06:03:50;99449.23;;;-0.70;100.00
36972;BME280;40554;52.122;20.678;2023-01-30T06:06:06;99444.76;;;-0.72;100.00
36972;BME280;40554;52.122;20.678;2023-01-30T06:08:23;99429.69;;;-0.72;100.00
36972;BME280;40554;52.122;20.678;2023-01-30T06:10:39;99415.82;;;-0.73;100.00
36972;BME280;40554;52.122;20.678;2023-01-30T06:12:55;99417.90;;;-0.73;100.00
36972;BME280;40554;52.122;20.678;2023-01-30T06:15:12;99413.56;;;-0.73;100.00
36972;BME280;40554;52.122;20.678;2023-01-30T06:17:28;99406.79;;;-0.73;100.00
36972;BME280;40554;52.122;20.678;2023-01-30T06:19:45;99412.55;;;-0.74;100.00
36972;BME280;40554;52.122;20.678;2023-01-30T06:22:01;99422.98;;;-0.74;100.00
36972;BME280;40554;52.122;20.678;2023-01-30T06:24:18;99430.10;;;-0.74;100.00
36972;BME280;40554;52.122;20.678;2023-01-30T06:26:34;99422.98;;;-0.75;100.00
36972;BME280;40554;52.122;20.678;2023-01-30T06:28:50;99421.76;;;-0.74;100.00
36972;BME280;40554;52.122;20.678;2023-01-30T06:31:07;99421.57;;;-0.74;100.00
36972;BME280;40554;52.122;20.678;2023-01-30T06:33:23;99413.59;;;-0.73;100.00
36972;BME280;40554;52.122;20.678;2023-01-30T06:35:41;99408.41;;;-0.75;100.00
36972;BME280;40554;52.122;20.678;2023-01-30T06:37:57;99400.41;;;-0.74;100.00
36972;BME280;40554;52.122;20.678;2023-01-30T06:40:13;99392.60;;;-0.74;100.00
36972;BME280;40554;52.122;20.678;2023-01-30T06:42:30;99391.02;;;-0.73;100.00
36972;BME280;40554;52.122;20.678;2023-01-30T06:44:46;99386.14;;;-0.73;100.00
36972;BME280;40554;52.122;20.678;2023-01-30T06:47:02;99378.52;;;-0.73;100.00
36972;BME280;40554;52.122;20.678;2023-01-30T06:49:19;99380.61;;;-0.74;100.00
36972;BME280;40554;52.122;20.678;2023-01-30T06:51:35;99378.20;;;-0.74;100.00
36972;BME280;40554;52.122;20.678;2023-01-30T06:53:51;99380.27;;;-0.74;100.00
36972;BME280;40554;52.122;20.678;2023-01-30T06:56:08;99373.02;;;-0.75;100.00
36972;BME280;40554;52.122;20.678;2023-01-30T06:58:25;99372.64;;;-0.74;100.00
36972;BME280;40554;52.122;20.678;2023-01-30T07:00:42;99367.45;;;-0.75;100.00
36972;BME280;40554;52.122;20.678;2023-01-30T07:02:58;99359.63;;;-0.74;100.00
36972;BME280;40554;52.122;20.678;2023-01-30T07:05:14;99348.17;;;-0.74;100.00
36972;BME280;40554;52.122;20.678;2023-01-30T07:07:31;99347.27;;;-0.74;100.00
36972;BME280;40554;52.122;20.678;2023-01-30T07:09:48;99344.84;;;-0.73;100.00
36972;BME280;40554;52.122;20.678;2023-01-30T07:12:22;99337.03;;;-0.73;100.00
36972;BME280;40554;52.122;20.678;2023-01-30T07:14:39;99335.63;;;-0.73;100.00
36972;BME280;40554;52.122;20.678;2023-01-30T07:16:55;99334.73;;;-0.72;100.00
36972;BME280;40554;52.122;20.678;2023-01-30T07:19:12;99344.64;;;-0.72;100.00
36972;BME280;40554;52.122;20.678;2023-01-30T07:21:28;99336.88;;;-0.74;100.00
36972;BME280;40554;52.122;20.678;2023-01-30T07:23:45;99337.43;;;-0.75;100.00
36972;BME280;40554;52.122;20.678;2023-01-30T07:26:03;99325.21;;;-0.77;100.00
36972;BME280;40554;52.122;20.678;2023-01-30T07:28:20;99321.65;;;-0.80;100.00
36972;BME280;40554;52.122;20.678;2023-01-30T07:30:36;99314.98;;;-0.82;100.00
36972;BME280;40554;52.122;20.678;2023-01-30T07:32:54;99309.14;;;-0.83;100.00
36972;BME280;40554;52.122;20.678;2023-01-30T07:35:12;99304.05;;;-0.86;100.00
36972;BME280;40554;52.122;20.678;2023-01-30T07:37:29;99304.36;;;-0.90;100.00
36972;BME280;40554;52.122;20.678;2023-01-30T07:39:46;99300.65;;;-0.93;100.00
36972;BME280;40554;52.122;20.678;2023-01-30T07:42:03;99298.83;;;-0.95;100.00
36972;BME280;40554;52.122;20.678;2023-01-30T07:44:19;99295.27;;;-0.97;100.00
36972;BME280;40554;52.122;20.678;2023-01-30T07:46:36;99292.89;;;-0.98;100.00
36972;BME280;40554;52.122;20.678;2023-01-30T07:48:52;99289.82;;;-1.00;100.00
36972;BME280;40554;52.122;20.678;2023-01-30T07:51:08;99295.27;;;-1.02;100.00
36972;BME280;40554;52.122;20.678;2023-01-30T07:53:24;99294.88;;;-1.05;100.00
36972;BME280;40554;52.122;20.678;2023-01-30T07:55:41;99297.02;;;-1.06;100.00
36972;BME280;40554;52.122;20.678;2023-01-30T07:57:57;99301.65;;;-1.10;100.00
36972;BME280;40554;52.122;20.678;2023-01-30T08:00:14;99297.91;;;-1.12;100.00
36972;BME280;40554;52.122;20.678;2023-01-30T08:02:31;99294.17;;;-1.14;100.00
36972;BME280;40554;52.122;20.678;2023-01-30T08:04:47;99290.61;;;-1.16;100.00
36972;BME280;40554;52.122;20.678;2023-01-30T08:07:04;99281.48;;;-1.18;100.00
36972;BME280;40554;52.122;20.678;2023-01-30T08:09:20;99286.21;;;-1.19;100.00
36972;BME280;40554;52.122;20.678;2023-01-30T08:11:36;99272.40;;;-1.21;100.00
36972;BME280;40554;52.122;20.678;2023-01-30T08:13:52;99268.09;;;-1.21;100.00
36972;BME280;40554;52.122;20.678;2023-01-30T08:16:09;99265.64;;;-1.21;100.00
36972;BME280;40554;52.122;20.678;2023-01-30T08:18:27;99265.31;;;-1.21;100.00
36972;BME280;40554;52.122;20.678;2023-01-30T08:20:44;99264.61;;;-1.21;100.00
36972;BME280;40554;52.122;20.678;2023-01-30T08:23:00;99264.58;;;-1.20;100.00
36972;BME280;40554;52.122;20.678;2023-01-30T08:25:17;99260.96;;;-1.21;100.00
36972;BME280;40554;52.122;20.678;2023-01-30T08:27:33;99259.09;;;-1.22;100.00
36972;BME280;40554;52.122;20.678;2023-01-30T08:29:49;99254.84;;;-1.24;100.00
36972;BME280;40554;52.122;20.678;2023-01-30T08:32:06;99255.64;;;-1.26;100.00
36972;BME280;40554;52.122;20.678;2023-01-30T08:34:22;99257.05;;;-1.27;100.00
36972;BME280;40554;52.122;20.678;2023-01-30T08:36:38;99252.52;;;-1.27;100.00
36972;BME280;40554;52.122;20.678;2023-01-30T08:38:55;99254.08;;;-1.26;100.00
36972;BME280;40554;52.122;20.678;2023-01-30T08:41:11;99251.98;;;-1.26;100.00
36972;BME280;40554;52.122;20.678;2023-01-30T08:43:27;99253.70;;;-1.26;100.00
36972;BME280;40554;52.122;20.678;2023-01-30T08:45:43;99248.35;;;-1.27;100.00
36972;BME280;40554;52.122;20.678;2023-01-30T08:48:01;99245.06;;;-1.27;100.00
36972;BME280;40554;52.122;20.678;2023-01-30T08:50:18;99240.55;;;-1.27;100.00
36972;BME280;40554;52.122;20.678;2023-01-30T08:52:35;99233.33;;;-1.28;100.00
36972;BME280;40554;52.122;20.678;2023-01-30T08:54:51;99225.91;;;-1.29;100.00
36972;BME280;40554;52.122;20.678;2023-01-30T08:57:07;99220.04;;;-1.30;100.00
36972;BME280;40554;52.122;20.678;2023-01-30T08:59:24;99222.31;;;-1.31;100.00
36972;BME280;40554;52.122;20.678;2023-01-30T09:01:40;99221.10;;;-1.31;100.00
36972;BME280;40554;52.122;20.678;2023-01-30T09:03:56;99215.89;;;-1.30;100.00
36972;BME280;40554;52.122;20.678;2023-01-30T09:06:12;99213.63;;;-1.30;100.00
36972;BME280;40554;52.122;20.678;2023-01-30T09:08:29;99208.24;;;-1.30;100.00
36972;BME280;40554;52.122;20.678;2023-01-30T09:10:45;99203.18;;;-1.29;100.00
36972;BME280;40554;52.122;20.678;2023-01-30T09:13:01;99196.73;;;-1.28;100.00
36972;BME280;40554;52.122;20.678;2023-01-30T09:15:18;99194.81;;;-1.28;100.00
36972;BME280;40554;52.122;20.678;2023-01-30T09:17:34;99192.91;;;-1.28;100.00
36972;BME280;40554;52.122;20.678;2023-01-30T09:19:51;99182.65;;;-1.28;100.00
36972;BME280;40554;52.122;20.678;2023-01-30T09:22:07;99181.90;;;-1.26;100.00
36972;BME280;40554;52.122;20.678;2023-01-30T09:24:23;99174.54;;;-1.24;100.00
36972;BME280;40554;52.122;20.678;2023-01-30T09:26:41;99174.98;;;-1.22;100.00
36972;BME280;40554;52.122;20.678;2023-01-30T09:29:00;99174.61;;;-1.21;100.00
36972;BME280;40554;52.122;20.678;2023-01-30T09:31:16;99165.57;;;-1.21;100.00
36972;BME280;40554;52.122;20.678;2023-01-30T09:33:32;99163.09;;;-1.20;100.00
36972;BME280;40554;52.122;20.678;2023-01-30T09:35:49;99163.42;;;-1.19;100.00
36972;BME280;40554;52.122;20.678;2023-01-30T09:38:05;99167.16;;;-1.17;100.00
36972;BME280;40554;52.122;20.678;2023-01-30T09:40:25;99159.24;;;-1.15;100.00
36972;BME280;40554;52.122;20.678;2023-01-30T09:45:36;99146.50;;;-1.03;100.00
36972;BME280;40554;52.122;20.678;2023-01-30T09:48:19;99142.66;;;-0.99;100.00
36972;BME280;40554;52.122;20.678;2023-01-30T09:53:38;99135.29;;;-0.92;100.00
36972;BME280;40554;52.122;20.678;2023-01-30T09:56:01;99129.27;;;-0.89;100.00
36972;BME280;40554;52.122;20.678;2023-01-30T09:58:20;99128.02;;;-0.88;100.00
36972;BME280;40554;52.122;20.678;2023-01-30T10:00:39;99129.24;;;-0.89;100.00
36972;BME280;40554;52.122;20.678;2023-01-30T10:03:28;99125.32;;;-0.91;100.00
36972;BME280;40554;52.122;20.678;2023-01-30T10:05:59;99117.52;;;-0.91;100.00
36972;BME280;40554;52.122;20.678;2023-01-30T10:08:45;99117.84;;;-0.90;100.00
36972;BME280;40554;52.122;20.678;2023-01-30T10:14:25;99110.53;;;-0.89;100.00
36972;BME280;40554;52.122;20.678;2023-01-30T10:16:42;99101.48;;;-0.88;100.00
36972;BME280;40554;52.122;20.678;2023-01-30T10:21:36;99094.05;;;-0.90;100.00
36972;BME280;40554;52.122;20.678;2023-01-30T10:24:05;99090.41;;;-0.90;100.00
36972;BME280;40554;52.122;20.678;2023-01-30T10:26:27;99082.74;;;-0.88;100.00
36972;BME280;40554;52.122;20.678;2023-01-30T10:32:00;99076.07;;;-0.87;100.00
36972;BME280;40554;52.122;20.678;2023-01-30T10:37:03;99069.38;;;-0.85;100.00
36972;BME280;40554;52.122;20.678;2023-01-30T10:39:44;99063.40;;;-0.83;100.00
36972;BME280;40554;52.122;20.678;2023-01-30T10:42:58;99063.52;;;-0.82;100.00
36972;BME280;40554;52.122;20.678;2023-01-30T10:44:48;99055.87;;;-0.81;100.00
36972;BME280;40554;52.122;20.678;2023-01-30T10:49:54;99047.66;;;-0.80;100.00
36972;BME280;40554;52.122;20.678;2023-01-30T10:52:23;99047.95;;;-0.79;100.00
36972;BME280;40554;52.122;20.678;2023-01-30T10:54:53;99043.89;;;-0.77;100.00
36972;BME280;40554;52.122;20.678;2023-01-30T11:00:24;99042.23;;;-0.71;100.00
36972;BME280;40554;52.122;20.678;2023-01-30T11:05:17;99036.84;;;-0.67;100.00
36972;BME280;40554;52.122;20.678;2023-01-30T11:07:36;99029.25;;;-0.64;100.00
36972;BME280;40554;52.122;20.678;2023-01-30T11:09:52;99027.71;;;-0.60;100.00
36972;BME280;40554;52.122;20.678;2023-01-30T11:12:09;99028.98;;;-0.58;100.00
36972;BME280;40554;52.122;20.678;2023-01-30T11:14:26;99021.04;;;-0.55;100.00
36972;BME280;40554;52.122;20.678;2023-01-30T11:16:49;99020.89;;;-0.51;100.00
36972;BME280;40554;52.122;20.678;2023-01-30T11:19:06;99013.42;;;-0.48;100.00
36972;BME280;40554;52.122;20.678;2023-01-30T11:21:36;99006.65;;;-0.44;100.00
36972;BME280;40554;52.122;20.678;2023-01-30T11:24:10;99008.60;;;-0.41;100.00
36972;BME280;40554;52.122;20.678;2023-01-30T11:26:33;99003.94;;;-0.37;100.00
36972;BME280;40554;52.122;20.678;2023-01-30T11:29:31;98999.94;;;-0.34;100.00
36972;BME280;40554;52.122;20.678;2023-01-30T11:31:51;99003.01;;;-0.28;100.00
36972;BME280;40554;52.122;20.678;2023-01-30T11:34:14;98997.59;;;-0.25;100.00
36972;BME280;40554;52.122;20.678;2023-01-30T11:36:33;98991.48;;;-0.20;100.00
36972;BME280;40554;52.122;20.678;2023-01-30T11:38:58;98991.16;;;-0.16;100.00
36972;BME280;40554;52.122;20.678;2023-01-30T11:41:19;98991.29;;;-0.15;100.00
36972;BME280;40554;52.122;20.678;2023-01-30T11:43:38;98983.59;;;-0.14;100.00
36972;BME280;40554;52.122;20.678;2023-01-30T11:45:54;98978.52;;;-0.14;100.00
36972;BME280;40554;52.122;20.678;2023-01-30T11:48:20;98976.95;;;-0.13;100.00
36972;BME280;40554;52.122;20.678;2023-01-30T11:50:49;98969.48;;;-0.13;100.00
36972;BME280;40554;52.122;20.678;2023-01-30T11:55:41;98962.25;;;-0.14;100.00
36972;BME280;40554;52.122;20.678;2023-01-30T11:58:12;98968.83;;;-0.14;100.00
36972;BME280;40554;52.122;20.678;2023-01-30T12:00:41;98970.38;;;-0.14;100.00
36972;BME280;40554;52.122;20.678;2023-01-30T12:03:04;98964.80;;;-0.14;100.00
36972;BME280;40554;52.122;20.678;2023-01-30T12:05:41;98954.04;;;-0.14;100.00
36972;BME280;40554;52.122;20.678;2023-01-30T12:10:29;98951.52;;;-0.12;100.00
36972;BME280;40554;52.122;20.678;2023-01-30T12:12:49;98954.20;;;-0.10;100.00
36972;BME280;40554;52.122;20.678;2023-01-30T12:15:29;98952.73;;;-0.08;100.00
36972;BME280;40554;52.122;20.678;2023-01-30T12:25:54;98949.63;;;-0.02;100.00
36972;BME280;40554;52.122;20.678;2023-01-30T12:31:13;98952.67;;;0.01;100.00
36972;BME280;40554;52.122;20.678;2023-01-30T12:33:32;98946.20;;;0.01;100.00
36972;BME280;40554;52.122;20.678;2023-01-30T12:38:56;98948.90;;;0.03;100.00
36972;BME280;40554;52.122;20.678;2023-01-30T12:46:43;98942.89;;;0.05;100.00
36972;BME280;40554;52.122;20.678;2023-01-30T12:54:30;98937.38;;;0.08;100.00
36972;BME280;40554;52.122;20.678;2023-01-30T13:04:53;98936.17;;;0.11;100.00
36972;BME280;40554;52.122;20.678;2023-01-30T13:15:30;98943.95;;;0.18;100.00
36972;BME280;40554;52.122;20.678;2023-01-30T13:25:36;98933.61;;;0.25;100.00
36972;BME280;40554;52.122;20.678;2023-01-30T13:28:00;98939.99;;;0.25;100.00
36972;BME280;40554;52.122;20.678;2023-01-30T13:30:19;98934.61;;;0.25;100.00
36972;BME280;40554;52.122;20.678;2023-01-30T13:32:41;98936.11;;;0.26;100.00
36972;BME280;40554;52.122;20.678;2023-01-30T13:35:00;98937.91;;;0.29;100.00
36972;BME280;40554;52.122;20.678;2023-01-30T13:37:19;98939.40;;;0.30;100.00
36972;BME280;40554;52.122;20.678;2023-01-30T13:42:49;98937.89;;;0.33;100.00
36972;BME280;40554;52.122;20.678;2023-01-30T13:45:15;98925.47;;;0.34;100.00
36972;BME280;40554;52.122;20.678;2023-01-30T13:50:33;98917.02;;;0.36;100.00
36972;BME280;40554;52.122;20.678;2023-01-30T14:06:45;98930.14;;;0.45;100.00
36972;BME280;40554;52.122;20.678;2023-01-30T14:09:18;98934.95;;;0.46;100.00
36972;BME280;40554;52.122;20.678;2023-01-30T14:11:59;98937.02;;;0.47;100.00
36972;BME280;40554;52.122;20.678;2023-01-30T14:16:44;98937.83;;;0.48;100.00